createdAt,value
2023-04-27T00:01:13.199Z,4.72
2023-04-27T00:06:15.124Z,3.28
2023-04-27T00:11:17.192Z,7.13
2023-04-27T00:16:19.301Z,5.35
2023-04-27T00:21:21.640Z,3.50
2023-04-27T00:26:23.969Z,5.95
2023-04-27T00:31:28.301Z,3.85
2023-04-27T00:36:35.137Z,7.45
2023-04-27T00:41:39.723Z,4.22
2023-04-27T00:46:41.655Z,3.15
2023-04-27T00:51:43.532Z,5.70
2023-04-27T00:56:48.330Z,4.78
2023-04-27T01:01:50.849Z,8.55
2023-04-27T01:06:54.753Z,3.25
2023-04-27T01:11:59.246Z,4.60
2023-04-27T01:17:02.752Z,5.13
2023-04-27T01:22:04.783Z,4.20
2023-04-27T01:27:06.797Z,5.22
2023-04-27T01:32:08.716Z,8.45
2023-04-27T01:37:11.125Z,3.20
2023-04-27T01:42:12.980Z,3.63
2023-04-27T01:47:18.243Z,4.22
2023-04-27T01:52:20.478Z,5.15
2023-04-27T01:57:22.530Z,3.45
2023-04-27T02:02:24.708Z,5.57
2023-04-27T02:07:27.439Z,6.43
2023-04-27T02:12:31.310Z,5.20
2023-04-27T02:17:35.153Z,10.38
2023-04-27T02:22:37.775Z,13.10
2023-04-27T02:27:41.633Z,8.57
2023-04-27T02:32:44.305Z,6.45
2023-04-27T02:37:46.706Z,4.72
2023-04-27T02:42:51.153Z,10.18
2023-04-27T02:47:53.298Z,4.00
2023-04-27T02:52:55.617Z,4.68
2023-04-27T02:57:57.808Z,2.42
2023-04-27T03:02:59.906Z,4.55
2023-04-27T03:08:01.975Z,5.60
2023-04-27T03:13:04.169Z,4.25
2023-04-27T03:18:06.651Z,3.78
2023-04-27T03:23:09.329Z,4.28
2023-04-27T03:28:11.430Z,7.13
2023-04-27T03:33:14.575Z,4.45
2023-04-27T03:38:16.610Z,5.75
2023-04-27T03:43:20.334Z,11.10
2023-04-27T03:48:22.676Z,3.20
2023-04-27T03:53:27.266Z,3.13
2023-04-27T03:58:29.633Z,4.30
2023-04-27T04:03:48.497Z,9.77
2023-04-27T04:08:50.695Z,5.68
2023-04-27T04:13:53.203Z,4.78
2023-04-27T04:18:55.269Z,4.10
2023-04-27T04:23:57.800Z,2.55
2023-04-27T04:29:00.140Z,4.43
2023-04-27T04:34:02.482Z,6.88
2023-04-27T04:39:05.488Z,4.32
2023-04-27T04:44:08.134Z,4.72
2023-04-27T04:49:10.142Z,4.95
2023-04-27T04:54:12.905Z,3.40
2023-04-27T04:59:14.937Z,7.30
2023-04-27T05:04:18.877Z,3.38
2023-04-27T05:09:21.112Z,2.55
2023-04-27T05:14:22.957Z,6.28
2023-04-27T05:19:25.519Z,4.90
2023-04-27T05:24:27.778Z,9.77
2023-04-27T05:29:30.050Z,2.65
2023-04-27T05:34:31.892Z,6.72
2023-04-27T05:39:33.847Z,7.03
2023-04-27T05:44:35.918Z,4.50
2023-04-27T05:49:37.865Z,6.38
2023-04-27T05:54:39.798Z,5.65
2023-04-27T05:59:42.939Z,5.68
2023-04-27T06:04:44.782Z,3.50
2023-04-27T06:09:46.668Z,6.15
2023-04-27T06:14:48.770Z,14.90
2023-04-27T06:19:51.992Z,9.40
2023-04-27T06:24:54.303Z,9.57
2023-04-27T06:29:56.324Z,3.88
2023-04-27T06:34:58.413Z,5.35
2023-04-27T06:40:00.519Z,7.47
2023-04-27T06:45:07.389Z,6.70
2023-04-27T06:50:09.879Z,3.58
2023-04-27T06:55:11.995Z,3.97
2023-04-27T07:00:14.678Z,9.20
2023-04-27T07:05:16.691Z,4.03
2023-04-27T07:10:18.779Z,7.15
2023-04-27T07:15:24.129Z,13.65
2023-04-27T07:20:27.155Z,12.70
2023-04-27T07:25:29.140Z,12.07
2023-04-27T07:30:31.260Z,10.77
2023-04-27T07:35:33.776Z,6.60
2023-04-27T07:40:36.526Z,9.60
2023-04-27T07:45:40.133Z,8.23
2023-04-27T07:50:42.353Z,9.15
2023-04-27T07:55:44.765Z,7.10
2023-04-27T08:00:47.533Z,7.20
2023-04-27T08:05:49.728Z,7.00
2023-04-27T08:10:52.008Z,5.57
2023-04-27T08:15:58.560Z,5.57
2023-04-27T08:21:00.487Z,6.88
2023-04-27T08:26:03.621Z,6.22
2023-04-27T08:31:05.802Z,6.72
2023-04-27T08:36:08.010Z,9.43
2023-04-27T08:41:20.934Z,4.43
2023-04-27T08:46:27.309Z,3.55
2023-04-27T08:51:29.949Z,7.68
2023-04-27T08:56:32.083Z,4.15
2023-04-27T09:01:34.252Z,3.63
2023-04-27T09:06:36.432Z,7.07
2023-04-27T09:11:39.814Z,3.63
2023-04-27T09:16:43.171Z,7.97
2023-04-27T09:21:48.348Z,4.60
2023-04-27T09:26:50.556Z,5.63
2023-04-27T09:31:52.736Z,6.78
2023-04-27T09:36:54.753Z,9.88
2023-04-27T09:41:57.116Z,3.88
2023-04-27T09:47:00.979Z,7.32
2023-04-27T09:52:02.987Z,8.30
2023-04-27T09:57:36.313Z,6.40
2023-04-27T10:03:02.665Z,4.63
2023-04-27T10:08:06.438Z,7.35
2023-04-27T10:13:08.309Z,4.93
2023-04-27T10:18:11.709Z,10.00
2023-04-27T10:23:26.246Z,5.53
2023-04-27T10:28:39.332Z,9.52
2023-04-27T10:33:44.508Z,7.28
2023-04-27T10:38:46.975Z,5.03
2023-04-27T10:43:49.128Z,5.72
2023-04-27T10:48:51.772Z,4.80
2023-04-27T10:53:54.023Z,10.65
2023-04-27T10:58:56.355Z,9.05
2023-04-27T11:04:00.174Z,7.35
2023-04-27T11:09:02.266Z,7.15
2023-04-27T11:14:04.296Z,8.68
2023-04-27T11:19:07.058Z,5.07
2023-04-27T11:24:10.986Z,5.10
2023-04-27T11:29:14.431Z,5.95
2023-04-27T11:34:22.739Z,7.38
2023-04-27T11:39:28.207Z,6.22
2023-04-27T11:44:30.207Z,8.70
2023-04-27T11:49:32.221Z,7.75
2023-04-27T11:54:34.082Z,4.68
2023-04-27T11:59:36.246Z,9.25
2023-04-27T12:04:38.501Z,13.43
2023-04-27T12:09:40.894Z,10.80
2023-04-27T12:14:42.797Z,7.07
2023-04-27T12:19:44.854Z,5.95
2023-04-27T12:24:46.803Z,5.90
2023-04-27T12:29:48.826Z,9.20
2023-04-27T12:34:50.982Z,9.77
2023-04-27T12:39:52.899Z,9.82
2023-04-27T12:44:54.934Z,10.77
2023-04-27T12:49:56.895Z,5.15
2023-04-27T12:54:59.489Z,5.85
2023-04-27T13:00:02.076Z,6.53
2023-04-27T13:05:04.882Z,8.90
2023-04-27T13:10:11.534Z,8.48
2023-04-27T13:15:13.484Z,6.30
2023-04-27T13:20:15.680Z,15.38
2023-04-27T13:25:17.801Z,13.07
2023-04-27T13:30:19.952Z,9.45
2023-04-27T13:35:22.036Z,9.57
2023-04-27T13:40:24.064Z,10.23
2023-04-27T13:45:26.185Z,7.47
2023-04-27T13:50:28.358Z,7.90
2023-04-27T13:55:30.824Z,9.05
2023-04-27T14:00:34.756Z,9.35
2023-04-27T14:05:36.918Z,10.93
2023-04-27T14:10:39.306Z,5.68
2023-04-27T14:15:42.238Z,5.47
2023-04-27T14:20:44.834Z,10.93
2023-04-27T14:25:47.155Z,7.68
2023-04-27T14:30:49.115Z,12.63
2023-04-27T14:35:51.364Z,9.55
2023-04-27T14:40:53.339Z,9.95
2023-04-27T14:46:02.068Z,7.78
2023-04-27T14:51:15.359Z,8.27
2023-04-27T14:56:17.900Z,8.07
2023-04-27T15:01:20.373Z,8.45
2023-04-27T15:06:22.492Z,9.00
2023-04-27T15:11:24.403Z,9.55
2023-04-27T15:16:26.476Z,9.65
2023-04-27T15:21:28.495Z,13.68
2023-04-27T15:26:30.614Z,9.98
2023-04-27T15:31:32.580Z,5.88
2023-04-27T15:36:34.616Z,9.57
2023-04-27T15:41:36.769Z,8.10
2023-04-27T15:46:38.750Z,9.55
2023-04-27T15:51:41.023Z,8.25
2023-04-27T15:56:43.184Z,9.60
2023-04-27T16:01:45.157Z,7.20
2023-04-27T16:06:47.082Z,10.02
2023-04-27T16:11:49.083Z,6.72
2023-04-27T16:16:51.605Z,8.63
2023-04-27T16:21:54.001Z,7.88
2023-04-27T16:26:56.135Z,12.77
2023-04-27T16:31:58.217Z,9.32
2023-04-27T16:37:00.365Z,8.98
2023-04-27T16:42:02.718Z,13.10
2023-04-27T16:47:04.605Z,10.93
2023-04-27T16:52:06.470Z,7.07
2023-04-27T16:57:08.469Z,7.45
2023-04-27T17:02:23.865Z,9.50
2023-04-27T17:07:32.866Z,8.32
2023-04-27T17:12:38.520Z,6.90
2023-04-27T17:17:41.461Z,10.40
2023-04-27T17:22:43.546Z,10.52
2023-04-27T17:27:45.716Z,8.45
2023-04-27T17:32:47.698Z,8.98
2023-04-27T17:37:49.705Z,7.18
2023-04-27T17:42:51.693Z,7.53
2023-04-27T17:47:53.623Z,10.88
2023-04-27T17:52:55.823Z,7.85
2023-04-27T17:58:00.820Z,8.57
2023-04-27T18:03:03.074Z,12.00
2023-04-27T18:08:05.405Z,9.13
2023-04-27T18:13:07.373Z,7.18
2023-04-27T18:18:10.543Z,8.50
2023-04-27T18:23:12.492Z,9.27
2023-04-27T18:28:14.469Z,12.88
2023-04-27T18:33:18.021Z,14.07
2023-04-27T18:38:19.872Z,19.50
2023-04-27T18:43:21.766Z,11.68
2023-04-27T18:48:23.788Z,10.80
2023-04-27T18:53:26.964Z,9.80
2023-04-27T18:58:29.110Z,12.70
2023-04-27T19:03:31.209Z,8.63
2023-04-27T19:08:33.225Z,7.40
2023-04-27T19:13:35.110Z,6.35
2023-04-27T19:18:37.083Z,13.88
2023-04-27T19:23:39.078Z,10.35
2023-04-27T19:28:41.385Z,9.65
2023-04-27T19:38:48.217Z,11.43
2023-04-27T19:43:50.086Z,13.75
2023-04-27T19:48:53.354Z,12.35
2023-04-27T19:53:55.325Z,18.08
2023-04-27T19:58:57.294Z,13.07
2023-04-27T20:03:59.435Z,11.98
2023-04-27T20:09:02.237Z,11.68
2023-04-27T20:14:04.586Z,9.00
2023-04-27T20:19:06.613Z,10.40
2023-04-27T20:24:08.566Z,8.80
2023-04-27T20:29:10.621Z,8.13
2023-04-27T20:34:12.837Z,12.00
2023-04-27T20:39:15.264Z,12.85
2023-04-27T20:44:18.498Z,12.70
2023-04-27T20:49:31.941Z,10.80
2023-04-27T20:54:37.184Z,11.60
2023-04-27T20:59:39.422Z,16.20
2023-04-27T21:04:41.459Z,12.23
2023-04-27T21:09:43.354Z,13.75
2023-04-27T21:14:45.458Z,12.63
2023-04-27T21:19:47.383Z,13.05
2023-04-27T21:24:50.359Z,13.73
2023-04-27T21:29:52.488Z,15.60
2023-04-27T21:34:54.518Z,16.38
2023-04-27T21:39:56.696Z,17.25
2023-04-27T21:44:58.754Z,28.45
2023-04-27T21:50:00.609Z,15.27
2023-04-27T21:55:03.171Z,13.93
2023-04-27T22:00:14.015Z,10.07
2023-04-27T22:05:22.240Z,10.50
2023-04-27T22:10:24.206Z,13.55
2023-04-27T22:15:26.477Z,15.15
2023-04-27T22:20:28.389Z,14.43
2023-04-27T22:25:30.688Z,10.85
2023-04-27T22:30:32.671Z,13.30
2023-04-27T22:35:36.503Z,10.30
2023-04-27T22:40:38.436Z,12.02
2023-04-27T22:45:40.535Z,11.52
2023-04-27T22:50:42.459Z,10.38
2023-04-27T22:55:44.376Z,9.05
2023-04-27T23:00:46.453Z,8.43
2023-04-27T23:05:48.470Z,8.32
2023-04-27T23:10:55.096Z,9.65
2023-04-27T23:15:57.264Z,12.25
2023-04-27T23:20:59.170Z,10.85
2023-04-27T23:26:01.026Z,9.88
2023-04-27T23:31:04.159Z,7.60
2023-04-27T23:36:06.753Z,7.35
2023-04-27T23:41:08.784Z,12.25
2023-04-27T23:46:11.029Z,10.25
2023-04-27T23:51:13.069Z,9.63
2023-04-27T23:56:19.300Z,11.18
